createdAt,value
2023-04-21T00:04:45.737Z,7.10
2023-04-21T00:09:38.092Z,7.00
2023-04-21T00:14:30.121Z,6.90
2023-04-21T00:19:23.918Z,6.80
2023-04-21T00:24:15.971Z,6.80
2023-04-21T00:29:08.101Z,6.80
2023-04-21T00:34:00.238Z,6.70
2023-04-21T00:38:52.402Z,6.60
2023-04-21T00:44:07.203Z,6.60
2023-04-21T00:49:00.644Z,6.60
2023-04-21T00:53:52.936Z,6.50
2023-04-21T00:58:46.184Z,6.40
2023-04-21T01:03:41.904Z,6.30
2023-04-21T01:08:36.374Z,6.30
2023-04-21T01:13:30.862Z,6.40
2023-04-21T01:18:22.945Z,6.30
2023-04-21T01:23:15.002Z,6.20
2023-04-21T01:28:06.994Z,6.10
2023-04-21T01:33:00.815Z,6.10
2023-04-21T01:37:52.925Z,6.00
2023-04-21T01:42:46.004Z,5.90
2023-04-21T01:47:41.626Z,5.80
2023-04-21T01:52:33.750Z,5.70
2023-04-21T01:57:26.127Z,5.60
2023-04-21T02:02:18.398Z,5.60
2023-04-21T02:07:10.516Z,5.60
2023-04-21T02:12:05.691Z,5.50
2023-04-21T02:16:57.787Z,5.50
2023-04-21T02:21:49.936Z,5.40
2023-04-21T02:26:44.680Z,5.50
2023-04-21T02:31:49.776Z,5.40
2023-04-21T02:36:46.947Z,5.30
2023-04-21T02:41:39.621Z,5.30
2023-04-21T02:46:31.771Z,5.20
2023-04-21T02:51:24.529Z,5.20
2023-04-21T02:56:16.815Z,5.20
2023-04-21T03:01:08.861Z,5.20
2023-04-21T03:06:04.899Z,5.20
2023-04-21T03:10:58.486Z,5.10
2023-04-21T03:15:51.467Z,5.00
2023-04-21T03:20:44.014Z,5.00
2023-04-21T03:25:36.316Z,4.80
2023-04-21T03:30:28.438Z,4.80
2023-04-21T03:35:20.475Z,4.70
2023-04-21T03:40:12.527Z,4.80
2023-04-21T03:45:06.542Z,4.90
2023-04-21T03:49:59.677Z,4.80
2023-04-21T03:54:51.787Z,4.70
2023-04-21T03:59:44.208Z,4.70
2023-04-21T04:04:36.594Z,4.70
2023-04-21T04:09:29.533Z,4.70
2023-04-21T04:14:21.647Z,4.80
2023-04-21T04:19:13.813Z,4.90
2023-04-21T04:24:06.003Z,4.90
2023-04-21T04:28:58.095Z,4.90
2023-04-21T04:33:51.227Z,5.10
2023-04-21T04:38:44.196Z,5.20
2023-04-21T04:43:42.943Z,5.40
2023-04-21T04:48:35.192Z,5.60
2023-04-21T04:53:30.220Z,5.90
2023-04-21T04:58:22.734Z,6.20
2023-04-21T05:03:15.087Z,6.40
2023-04-21T05:08:07.238Z,6.50
2023-04-21T05:12:59.293Z,6.70
2023-04-21T05:17:51.408Z,7.00
2023-04-21T05:22:43.434Z,7.20
2023-04-21T05:27:35.594Z,8.70
2023-04-21T05:32:27.633Z,14.10
2023-04-21T05:37:19.710Z,18.40
2023-04-21T05:42:12.124Z,21.30
2023-04-21T05:47:07.971Z,22.70
2023-04-21T05:52:00.251Z,19.90
2023-04-21T05:56:52.283Z,18.90
2023-04-21T06:01:44.542Z,17.90
2023-04-21T06:06:37.033Z,17.50
2023-04-21T06:11:29.063Z,16.00
2023-04-21T06:16:21.308Z,15.10
2023-04-21T06:21:13.362Z,15.80
2023-04-21T06:26:07.205Z,19.40
2023-04-21T06:31:00.318Z,23.70
2023-04-21T06:35:52.521Z,27.20
2023-04-21T06:40:45.141Z,28.10
2023-04-21T06:45:37.214Z,29.50
2023-04-21T06:50:29.352Z,31.40
2023-04-21T06:55:21.394Z,31.90
2023-04-21T07:00:13.970Z,32.60
2023-04-21T07:05:07.660Z,32.80
2023-04-21T07:09:59.790Z,33.20
2023-04-21T07:14:51.990Z,33.30
2023-04-21T07:19:44.010Z,33.80
2023-04-21T07:24:37.455Z,34.20
2023-04-21T07:29:29.696Z,35.10
2023-04-21T07:34:21.896Z,35.30
2023-04-21T07:39:13.999Z,34.70
2023-04-21T07:44:06.139Z,34.80
2023-04-21T07:49:00.960Z,36.00
2023-04-21T07:53:55.010Z,36.30
2023-04-21T07:58:47.048Z,36.80
2023-04-21T08:03:39.417Z,36.70
2023-04-21T08:08:32.124Z,37.10
2023-04-21T08:13:25.252Z,37.50
2023-04-21T08:18:21.369Z,37.50
2023-04-21T08:23:15.613Z,38.00
2023-04-21T08:28:08.001Z,38.60
2023-04-21T08:33:00.054Z,39.30
2023-04-21T08:37:53.003Z,39.70
2023-04-21T08:42:47.034Z,38.90
2023-04-21T08:47:41.682Z,37.20
2023-04-21T08:52:33.873Z,34.50
2023-04-21T08:57:25.924Z,31.30
2023-04-21T09:02:22.408Z,27.20
2023-04-21T09:07:36.256Z,25.50
2023-04-21T09:12:29.512Z,24.80
2023-04-21T09:17:28.737Z,25.90
2023-04-21T09:22:21.108Z,28.60
2023-04-21T09:27:14.894Z,29.30
2023-04-21T09:32:12.248Z,30.20
2023-04-21T09:37:05.382Z,31.80
2023-04-21T09:41:58.888Z,32.30
2023-04-21T09:46:51.526Z,31.50
2023-04-21T09:52:10.474Z,31.80
2023-04-21T09:56:58.306Z,31.50
2023-04-21T10:01:52.271Z,29.60
2023-04-21T10:06:45.159Z,29.00
2023-04-21T10:11:37.872Z,29.90
2023-04-21T10:16:30.321Z,31.00
2023-04-21T10:21:24.263Z,30.30
2023-04-21T10:26:25.726Z,30.80
2023-04-21T10:31:29.949Z,31.10
2023-04-21T10:36:25.417Z,31.50
2023-04-21T10:41:28.234Z,33.10
2023-04-21T10:46:38.284Z,32.00
2023-04-21T10:51:32.968Z,31.50
2023-04-21T10:56:26.097Z,30.70
2023-04-21T11:01:18.512Z,29.80
2023-04-21T11:06:18.639Z,30.30
2023-04-21T11:11:10.788Z,28.60
2023-04-21T11:16:06.738Z,29.70
2023-04-21T11:21:10.751Z,31.00
2023-04-21T11:26:02.800Z,30.50
2023-04-21T11:30:55.163Z,31.20
2023-04-21T11:35:47.400Z,28.60
2023-04-21T11:40:47.275Z,26.20
2023-04-21T11:45:42.014Z,25.00
2023-04-21T11:50:34.290Z,23.80
2023-04-21T11:55:37.231Z,23.10
2023-04-21T12:00:31.571Z,22.60
2023-04-21T12:05:24.315Z,22.60
2023-04-21T12:10:21.160Z,22.50
2023-04-21T12:15:21.629Z,22.50
2023-04-21T12:20:17.747Z,22.30
2023-04-21T12:25:10.260Z,22.60
2023-04-21T12:30:04.158Z,22.20
2023-04-21T12:34:57.729Z,22.20
2023-04-21T12:39:49.810Z,22.50
2023-04-21T12:44:41.996Z,22.60
2023-04-21T12:49:34.117Z,22.50
2023-04-21T12:54:26.231Z,22.60
2023-04-21T12:59:18.401Z,22.60
2023-04-21T13:04:10.944Z,22.80
2023-04-21T13:09:03.358Z,22.80
2023-04-21T13:13:56.621Z,22.70
2023-04-21T13:18:48.603Z,22.70
2023-04-21T13:23:43.926Z,22.70
2023-04-21T13:28:36.487Z,22.50
2023-04-21T13:33:28.875Z,22.50
2023-04-21T13:38:21.302Z,22.60
2023-04-21T13:43:13.951Z,22.70
2023-04-21T13:48:06.055Z,22.40
2023-04-21T13:52:58.130Z,22.20
2023-04-21T13:57:50.589Z,22.40
2023-04-21T14:02:42.896Z,22.60
2023-04-21T14:07:36.176Z,22.60
2023-04-21T14:12:28.370Z,22.40
2023-04-21T14:17:20.527Z,22.20
2023-04-21T14:22:12.604Z,21.90
2023-04-21T14:27:05.965Z,21.70
2023-04-21T14:31:59.345Z,21.60
2023-04-21T14:36:52.141Z,21.40
2023-04-21T14:41:44.509Z,21.30
2023-04-21T14:46:36.988Z,21.20
2023-04-21T14:51:29.278Z,21.50
2023-04-21T14:56:21.410Z,21.70
2023-04-21T15:01:14.219Z,21.90
2023-04-21T15:06:06.793Z,21.90
2023-04-21T15:10:58.861Z,21.90
2023-04-21T15:15:52.246Z,21.70
2023-04-21T15:20:45.785Z,21.60
2023-04-21T15:25:39.929Z,21.10
2023-04-21T15:30:32.100Z,20.80
2023-04-21T15:35:24.193Z,20.70
2023-04-21T15:40:16.237Z,20.80
2023-04-21T15:45:09.145Z,21.00
2023-04-21T15:50:01.158Z,21.00
2023-04-21T15:54:53.315Z,20.70
2023-04-21T15:59:45.505Z,20.60
2023-04-21T16:04:38.115Z,20.60
2023-04-21T16:09:30.645Z,20.50
2023-04-21T16:14:22.767Z,20.40
2023-04-21T16:19:16.233Z,20.40
2023-04-21T16:24:09.200Z,20.30
2023-04-21T16:29:01.409Z,20.20
2023-04-21T16:33:53.596Z,19.90
2023-04-21T16:38:47.037Z,19.70
2023-04-21T16:43:40.201Z,19.60
2023-04-21T16:48:32.428Z,19.50
2023-04-21T16:53:25.815Z,19.40
2023-04-21T16:58:17.946Z,19.30
2023-04-21T17:03:10.180Z,19.20
2023-04-21T17:08:02.367Z,19.10
2023-04-21T17:12:54.422Z,19.00
2023-04-21T17:17:47.251Z,18.90
2023-04-21T17:22:40.302Z,18.80
2023-04-21T17:27:34.717Z,18.70
2023-04-21T17:32:27.777Z,18.60
2023-04-21T17:37:20.032Z,18.50
2023-04-21T17:42:12.053Z,18.30
2023-04-21T17:47:08.354Z,18.20
2023-04-21T17:52:00.819Z,18.10
2023-04-21T17:56:52.944Z,17.90
2023-04-21T18:01:45.127Z,17.80
2023-04-21T18:06:37.857Z,17.60
2023-04-21T18:11:29.958Z,17.50
2023-04-21T18:16:22.141Z,17.30
2023-04-21T18:21:15.022Z,17.30
2023-04-21T18:26:08.486Z,17.20
2023-04-21T18:31:00.905Z,17.10
2023-04-21T18:35:53.031Z,16.90
2023-04-21T18:40:48.040Z,16.80
2023-04-21T18:45:41.364Z,16.70
2023-04-21T18:50:35.943Z,16.60
2023-04-21T18:55:30.686Z,16.50
2023-04-21T19:00:22.842Z,16.40
2023-04-21T19:05:15.614Z,16.20
2023-04-21T19:10:08.591Z,16.20
2023-04-21T19:15:01.747Z,16.10
2023-04-21T19:19:54.049Z,16.00
2023-04-21T19:24:47.045Z,15.90
2023-04-21T19:29:39.344Z,15.80
2023-04-21T19:34:31.403Z,15.80
2023-04-21T19:39:23.547Z,15.70
2023-04-21T19:44:15.559Z,15.60
2023-04-21T19:49:07.635Z,15.60
2023-04-21T19:54:10.728Z,15.40
2023-04-21T19:59:05.663Z,15.00
2023-04-21T20:03:58.888Z,15.00
2023-04-21T20:08:51.174Z,14.60
2023-04-21T20:13:43.241Z,14.60
2023-04-21T20:18:36.240Z,14.80
2023-04-21T20:23:29.120Z,14.80
2023-04-21T20:28:21.255Z,14.60
2023-04-21T20:33:16.502Z,14.40
2023-04-21T20:38:08.664Z,14.20
2023-04-21T20:43:01.421Z,14.00
2023-04-21T20:47:54.397Z,13.70
2023-04-21T20:52:46.417Z,13.60
2023-04-21T20:57:38.664Z,13.70
2023-04-21T21:02:31.100Z,13.50
2023-04-21T21:07:23.329Z,13.50
2023-04-21T21:12:15.404Z,13.50
2023-04-21T21:17:08.326Z,13.80
2023-04-21T21:22:00.595Z,13.80
2023-04-21T21:26:52.686Z,13.60
2023-04-21T21:31:44.853Z,13.40
2023-04-21T21:36:37.143Z,13.00
2023-04-21T21:41:29.590Z,12.70
2023-04-21T21:46:22.306Z,12.40
2023-04-21T21:51:15.877Z,12.30
2023-04-21T21:56:08.039Z,12.20
2023-04-21T22:01:00.399Z,12.00
2023-04-21T22:05:52.455Z,11.90
2023-04-21T22:10:45.252Z,11.70
2023-04-21T22:15:41.564Z,11.60
2023-04-21T22:20:34.162Z,11.50
2023-04-21T22:25:29.283Z,11.40
2023-04-21T22:30:21.607Z,11.30
2023-04-21T22:35:18.115Z,11.20
2023-04-21T22:40:10.997Z,11.00
2023-04-21T22:45:05.302Z,11.00
2023-04-21T22:49:58.595Z,11.10
2023-04-21T22:54:50.588Z,11.20
2023-04-21T22:59:42.674Z,11.40
2023-04-21T23:04:35.458Z,11.50
2023-04-21T23:09:27.645Z,11.60
2023-04-21T23:14:19.660Z,11.50
2023-04-21T23:19:11.722Z,11.30
2023-04-21T23:24:03.862Z,11.30
2023-04-21T23:28:55.920Z,11.10
2023-04-21T23:33:48.072Z,10.80
2023-04-21T23:38:40.164Z,10.70
2023-04-21T23:43:34.513Z,10.50
2023-04-21T23:48:27.204Z,10.30
2023-04-21T23:53:19.271Z,10.50
2023-04-21T23:58:11.327Z,10.50
